Time;durP1;ratioP1;P1;durP2;ratioP2;P2;SDS_P1;SDS_P2;PMS_P1;PMS_P2;Temp;Humidity;BMP_temperature;BMP_pressure;BME280_temperature;BME280_humidity;BME280_pressure;Samples;Min_cycle;Max_cycle;Signal;HPM_P1;HPM_P2
2023/10/28 00:00:48;;;;;;;1.80;0.80;;;;;;;23.69;56.04;97891.44;6215787;23;20158;-91
2023/10/28 00:03:14;;;;;;;6.37;1.50;;;;;;;23.68;55.96;97903.19;6216025;23;20178;-91
2023/10/28 00:05:40;;;;;;;6.40;1.87;;;;;;;23.62;56.15;97889.75;6215720;23;20172;-90
2023/10/28 00:08:05;;;;;;;10.13;1.37;;;;;;;23.57;56.34;97900.19;6216103;23;20157;-91
2023/10/28 00:10:35;;;;;;;7.63;1.20;;;;;;;23.58;56.03;97900.03;6216243;23;20160;-92
2023/10/28 00:13:02;;;;;;;5.03;1.57;;;;;;;23.56;56.30;97904.72;6215597;23;20686;-91
2023/10/28 00:15:27;;;;;;;9.10;1.50;;;;;;;23.48;56.35;97899.47;6215752;23;20233;-91
2023/10/28 00:17:53;;;;;;;4.37;1.10;;;;;;;23.44;56.81;97908.94;6216140;23;20150;-91
2023/10/28 00:20:19;;;;;;;8.23;1.53;;;;;;;23.54;56.41;97906.75;6189024;23;20237;-91
2023/10/28 00:22:46;;;;;;;4.53;1.00;;;;;;;23.51;56.13;97907.13;6215982;23;20153;-91
2023/10/28 00:25:13;;;;;;;3.27;1.37;;;;;;;23.45;56.66;97915.09;6215726;23;20500;-91
2023/10/28 00:27:40;;;;;;;7.50;1.57;;;;;;;23.55;56.51;97920.97;6215654;23;20149;-91
2023/10/28 00:30:10;;;;;;;5.73;1.53;;;;;;;23.65;55.92;97922.28;6215488;23;20150;-91
2023/10/28 00:32:37;;;;;;;2.20;1.00;;;;;;;23.52;56.08;97907.97;6215504;23;20261;-90
2023/10/28 00:35:05;;;;;;;5.37;1.13;;;;;;;23.35;56.91;97910.03;6189267;23;20188;-90
2023/10/28 00:37:31;;;;;;;4.83;1.40;;;;;;;23.47;56.46;97905.88;6189720;23;20188;-91
2023/10/28 00:39:57;;;;;;;4.27;1.33;;;;;;;23.60;55.93;97897.97;6189313;23;20153;-90
2023/10/28 00:42:23;;;;;;;6.33;0.83;;;;;;;23.41;56.63;97908.47;6215588;23;20537;-90
2023/10/28 00:44:50;;;;;;;9.40;1.17;;;;;;;23.26;56.97;97911.19;6215605;23;20165;-90
2023/10/28 00:47:16;;;;;;;9.80;1.87;;;;;;;23.20;57.46;97918.13;6189011;23;20252;-90
2023/10/28 00:49:42;;;;;;;8.27;1.87;;;;;;;23.19;57.14;97916.44;6215482;23;20170;-91
2023/10/28 00:52:08;;;;;;;9.70;1.10;;;;;;;23.21;56.91;97913.59;6215198;23;20169;-91
2023/10/28 00:54:35;;;;;;;3.37;0.87;;;;;;;23.20;57.13;97918.13;6215615;23;20173;-90
2023/10/28 00:57:01;;;;;;;2.73;1.23;;;;;;;23.17;57.19;97917.66;6215460;23;20150;-90
2023/10/28 00:59:28;;;;;;;4.17;1.33;;;;;;;23.11;57.13;97908.53;6215363;23;20149;-90
2023/10/28 01:01:54;;;;;;;5.70;1.57;;;;;;;23.05;57.61;97913.84;6215432;23;20141;-91
2023/10/28 01:04:20;;;;;;;3.90;1.30;;;;;;;23.17;57.25;97913.13;6215727;23;20232;-91
2023/10/28 01:06:46;;;;;;;8.07;1.27;;;;;;;23.12;57.19;97906.69;6215097;23;20196;-91
2023/10/28 01:09:12;;;;;;;2.23;1.03;;;;;;;22.98;57.80;97897.72;6215160;23;20146;-91
2023/10/28 01:11:41;;;;;;;6.40;1.53;;;;;;;23.00;58.06;97906.38;6215303;23;20150;-91
2023/10/28 01:14:07;;;;;;;5.63;1.43;;;;;;;23.12;57.24;97920.91;6189028;23;20153;-91
2023/10/28 01:16:33;;;;;;;6.20;1.13;;;;;;;23.06;57.54;97923.53;6215338;23;20150;-90
2023/10/28 01:18:59;;;;;;;6.47;1.50;;;;;;;22.96;58.04;97906.94;6215131;23;20150;-91
2023/10/28 01:21:26;;;;;;;4.60;1.40;;;;;;;22.91;58.13;97906.66;6189095;23;20224;-91
2023/10/28 01:23:52;;;;;;;6.90;1.20;;;;;;;22.85;58.43;97920.81;6215241;23;20208;-91
2023/10/28 01:26:18;;;;;;;2.53;0.90;;;;;;;22.77;58.50;97916.41;6215408;23;20150;-90
2023/10/28 01:28:44;;;;;;;10.17;1.70;;;;;;;22.75;58.68;97922.91;6189128;23;20223;-91
2023/10/28 01:31:10;;;;;;;5.13;1.37;;;;;;;22.83;58.67;97918.28;6216129;23;20154;-91
2023/10/28 01:33:35;;;;;;;8.27;1.53;;;;;;;22.86;58.28;97925.09;6191075;23;20655;-90
2023/10/28 01:36:01;;;;;;;8.70;2.20;;;;;;;22.77;58.79;97926.25;6217098;23;20158;-91
2023/10/28 01:38:26;;;;;;;5.73;1.90;;;;;;;22.61;59.28;97920.03;6217271;23;20591;-91
2023/10/28 01:40:52;;;;;;;4.23;1.37;;;;;;;22.64;59.28;97927.72;6217158;23;20499;-91
2023/10/28 01:43:19;;;;;;;6.93;1.60;;;;;;;22.62;59.31;97923.53;6191276;23;20161;-91
2023/10/28 01:45:45;;;;;;;4.43;1.40;;;;;;;22.61;59.36;97928.06;6217417;23;20150;-91
2023/10/28 01:48:11;;;;;;;6.17;1.30;;;;;;;22.47;59.79;97915.56;6217534;23;20576;-90
2023/10/28 01:50:37;;;;;;;7.03;1.60;;;;;;;22.44;60.37;97925.75;6217197;23;20146;-91
2023/10/28 01:53:03;;;;;;;4.20;1.30;;;;;;;22.44;60.22;97926.59;6216913;23;20236;-90
2023/10/28 01:55:29;;;;;;;1.80;1.10;;;;;;;22.51;59.86;97932.84;6190741;23;20531;-90
2023/10/28 01:57:55;;;;;;;11.07;1.90;;;;;;;22.57;59.40;97933.97;6217018;23;20664;-90
2023/10/28 02:00:22;;;;;;;4.63;1.67;;;;;;;22.66;59.11;97940.91;6217002;23;20156;-90
2023/10/28 02:02:48;;;;;;;10.00;1.33;;;;;;;22.71;58.72;97945.69;6216969;23;20307;-91
2023/10/28 02:05:15;;;;;;;5.90;1.30;;;;;;;22.72;58.78;97950.03;6216862;23;20215;-90
2023/10/28 02:07:40;;;;;;;5.00;1.30;;;;;;;22.72;58.96;97955.38;6217047;23;20134;-90
2023/10/28 02:10:06;;;;;;;5.40;1.40;;;;;;;22.75;58.72;97944.28;6190744;23;20154;-90
2023/10/28 02:12:34;;;;;;;10.23;1.93;;;;;;;22.71;58.71;97949.19;6216747;23;20182;-90
2023/10/28 02:15:05;;;;;;;3.87;1.70;;;;;;;22.69;58.68;97953.06;6217025;23;20204;-90
2023/10/28 02:17:31;;;;;;;4.87;1.23;;;;;;;22.59;58.76;97948.78;6216697;23;20163;-90
2023/10/28 02:19:56;;;;;;;8.40;1.57;;;;;;;22.57;58.70;97953.50;6216764;23;20228;-89
2023/10/28 02:22:22;;;;;;;7.67;1.53;;;;;;;22.54;58.80;97945.84;6216572;23;20514;-90
2023/10/28 02:24:48;;;;;;;8.47;1.70;;;;;;;22.60;58.28;97949.63;6216844;23;20164;-90
2023/10/28 02:27:13;;;;;;;4.47;1.80;;;;;;;22.64;57.94;97950.94;6216715;23;20476;-90
2023/10/28 02:29:39;;;;;;;9.87;2.17;;;;;;;22.59;57.50;97950.63;6216761;23;20278;-90
2023/10/28 02:32:06;;;;;;;5.60;2.40;;;;;;;22.56;57.65;97957.16;6190271;23;20182;-90
2023/10/28 02:34:31;;;;;;;7.20;2.60;;;;;;;22.51;57.44;97959.56;6217074;23;20150;-90
2023/10/28 02:36:56;;;;;;;6.87;2.43;;;;;;;22.52;57.31;97963.91;6216888;23;20156;-90
2023/10/28 02:39:22;;;;;;;10.17;2.03;;;;;;;22.42;57.48;97963.34;6216459;23;20146;-90
2023/10/28 02:41:47;;;;;;;6.10;2.37;;;;;;;22.36;57.50;97969.41;6189888;23;20150;-90
2023/10/28 02:44:13;;;;;;;12.87;2.93;;;;;;;22.26;58.27;97968.84;6190207;23;20236;-90
2023/10/28 02:46:38;;;;;;;11.00;2.63;;;;;;;22.21;58.33;97957.91;6190340;23;20233;-90
2023/10/28 02:49:04;;;;;;;5.40;1.77;;;;;;;22.19;58.14;97965.25;6190383;23;20245;-90
2023/10/28 02:51:29;;;;;;;7.33;2.60;;;;;;;22.12;58.30;97969.66;6189952;23;20238;-90
2023/10/28 02:53:55;;;;;;;8.60;2.23;;;;;;;22.28;58.39;97977.50;6190693;23;20494;-90
2023/10/28 02:56:21;;;;;;;5.43;2.30;;;;;;;22.24;58.20;97984.22;6216511;23;20215;-90
2023/10/28 02:58:46;;;;;;;9.40;2.40;;;;;;;22.13;58.39;97990.00;6216421;23;20169;-90
2023/10/28 03:01:13;;;;;;;6.30;2.43;;;;;;;22.01;58.80;97989.59;6216299;23;20153;-90
2023/10/28 03:03:41;;;;;;;7.07;2.00;;;;;;;22.06;58.84;97991.75;6216385;23;20145;-90
2023/10/28 03:06:07;;;;;;;8.10;2.40;;;;;;;22.05;58.72;97995.41;6190020;23;20508;-90
2023/10/28 03:08:33;;;;;;;4.20;1.87;;;;;;;22.13;58.76;98003.34;6190249;23;20291;-90
2023/10/28 03:10:58;;;;;;;8.20;2.37;;;;;;;22.19;58.59;98018.66;6190192;23;20656;-90
2023/10/28 03:13:24;;;;;;;6.77;2.03;;;;;;;21.96;59.12;98013.31;6216464;23;20249;-91
2023/10/28 03:15:49;;;;;;;11.10;2.60;;;;;;;21.89;59.25;98006.22;6216591;23;20566;-90
2023/10/28 03:18:15;;;;;;;5.10;1.40;;;;;;;21.93;59.47;98008.34;6189916;23;20541;-90
2023/10/28 03:20:41;;;;;;;7.40;2.37;;;;;;;21.94;59.11;98002.00;6216567;23;20211;-90
2023/10/28 03:23:07;;;;;;;7.30;2.17;;;;;;;21.86;59.56;97999.41;6189689;23;20158;-90
2023/10/28 03:25:33;;;;;;;5.67;1.63;;;;;;;21.98;59.52;98010.50;6189967;23;20486;-91
2023/10/28 03:28:01;;;;;;;8.37;2.30;;;;;;;21.90;59.54;98008.72;6189981;23;20158;-90
2023/10/28 03:30:27;;;;;;;7.33;2.00;;;;;;;21.80;59.70;98017.94;6190001;23;20212;-90
2023/10/28 03:32:52;;;;;;;7.57;2.37;;;;;;;21.81;59.69;98014.25;6189776;23;20178;-90
2023/10/28 03:35:18;;;;;;;7.63;2.47;;;;;;;21.78;59.63;98014.59;6216105;23;20518;-90
2023/10/28 03:37:44;;;;;;;8.13;2.03;;;;;;;21.75;59.44;98014.97;6216111;23;20221;-90
2023/10/28 03:40:10;;;;;;;11.83;2.60;;;;;;;21.67;59.50;98018.50;6216090;23;20174;-90
2023/10/28 03:42:36;;;;;;;5.93;2.57;;;;;;;21.64;59.48;98015.38;6189634;23;20164;-89
2023/10/28 03:45:07;;;;;;;8.97;2.40;;;;;;;21.60;59.67;98022.06;6216123;23;20150;-90
2023/10/28 03:47:33;;;;;;;8.17;2.90;;;;;;;21.55;59.15;98014.59;6215988;23;20213;-90
2023/10/28 03:49:59;;;;;;;13.70;2.37;;;;;;;21.49;59.61;98009.16;6216355;23;20165;-90
2023/10/28 03:52:25;;;;;;;10.90;1.90;;;;;;;21.43;59.16;98008.81;6216139;23;20234;-90
2023/10/28 03:54:50;;;;;;;11.93;2.80;;;;;;;21.43;59.56;98006.16;6215864;23;20150;-90
2023/10/28 03:57:16;;;;;;;9.87;2.70;;;;;;;21.44;59.33;98015.84;6216121;23;20150;-90
2023/10/28 03:59:41;;;;;;;8.43;2.63;;;;;;;21.40;59.28;98016.38;6215751;23;20150;-90
2023/10/28 04:02:07;;;;;;;8.97;2.67;;;;;;;21.37;59.15;98019.38;6189513;23;20503;-90
2023/10/28 04:04:33;;;;;;;7.30;2.57;;;;;;;21.25;59.45;98018.94;6215746;23;20239;-90
2023/10/28 04:06:59;;;;;;;9.27;3.43;;;;;;;21.15;59.70;98026.31;6216218;23;20492;-90
2023/10/28 04:09:24;;;;;;;7.60;3.00;;;;;;;21.15;59.45;98038.81;6215795;23;20456;-90
2023/10/28 04:11:50;;;;;;;15.60;2.97;;;;;;;21.26;59.43;98046.41;6215581;23;20498;-90
2023/10/28 04:14:16;;;;;;;6.33;2.57;;;;;;;21.12;59.58;98034.66;6215923;23;20224;-90
2023/10/28 04:16:42;;;;;;;8.23;2.70;;;;;;;21.01;59.77;98037.69;6215930;23;20160;-90
2023/10/28 04:19:08;;;;;;;12.53;2.83;;;;;;;20.88;60.56;98036.56;6215535;23;20150;-90
2023/10/28 04:21:33;;;;;;;6.50;2.20;;;;;;;20.73;61.09;98029.28;6215941;23;20146;-90
2023/10/28 04:23:59;;;;;;;8.67;2.60;;;;;;;20.68;61.51;98039.63;6215411;23;20150;-89
2023/10/28 04:26:24;;;;;;;7.27;2.63;;;;;;;20.69;61.58;98051.94;6215593;23;20213;-90
2023/10/28 04:28:50;;;;;;;8.60;2.80;;;;;;;20.61;61.36;98056.44;6215631;23;20149;-89
2023/10/28 04:31:15;;;;;;;7.07;2.30;;;;;;;20.58;61.21;98051.44;6215430;23;20150;-90
2023/10/28 04:33:41;;;;;;;9.30;3.40;;;;;;;20.60;60.88;98054.78;6215424;23;20174;-90
2023/10/28 04:36:10;;;;;;;5.43;2.37;;;;;;;20.59;60.65;98051.31;6189237;23;20165;-90
2023/10/28 04:38:39;;;;;;;5.70;2.30;;;;;;;20.50;60.80;98056.78;6215558;23;20150;-90
2023/10/28 04:41:04;;;;;;;4.60;1.87;;;;;;;20.45;61.42;98056.47;6189199;23;20149;-90
2023/10/28 04:43:30;;;;;;;4.40;1.40;;;;;;;20.39;61.47;98062.50;6189178;23;20227;-90
2023/10/28 04:45:55;;;;;;;5.73;2.30;;;;;;;20.27;62.01;98055.81;6215213;23;20225;-89
2023/10/28 04:48:27;;;;;;;6.67;2.63;;;;;;;20.25;62.17;98065.81;6215794;23;20150;-89
2023/10/28 04:50:52;;;;;;;5.77;2.37;;;;;;;20.32;61.73;98080.09;6189057;23;20146;-89
2023/10/28 04:53:18;;;;;;;8.03;2.10;;;;;;;20.24;62.00;98075.63;6189106;23;20275;-90
2023/10/28 04:55:44;;;;;;;4.70;2.03;;;;;;;20.19;62.27;98084.06;6215357;23;20146;-90
2023/10/28 04:58:10;;;;;;;5.87;2.23;;;;;;;20.19;62.31;98086.75;6215712;23;20153;-90
2023/10/28 05:00:36;;;;;;;6.17;2.20;;;;;;;20.13;62.80;98092.72;6215387;23;20224;-90
2023/10/28 05:03:02;;;;;;;10.63;2.23;;;;;;;20.07;62.95;98087.25;6215215;23;20165;-90
2023/10/28 05:05:28;;;;;;;9.60;2.53;;;;;;;20.11;63.05;98086.72;6188613;23;20166;-90
2023/10/28 05:07:53;;;;;;;5.47;1.93;;;;;;;20.06;63.25;98094.38;6215156;23;20134;-90
2023/10/28 05:10:19;;;;;;;7.37;3.03;;;;;;;20.07;63.53;98093.38;6215303;23;20158;-91
2023/10/28 05:12:44;;;;;;;9.23;3.10;;;;;;;20.11;63.44;98097.38;6215235;23;20180;-90
2023/10/28 05:15:10;;;;;;;5.53;2.30;;;;;;;20.12;63.54;98096.38;6188918;23;20251;-90
2023/10/28 05:17:36;;;;;;;7.27;2.37;;;;;;;20.18;63.29;98098.38;6215606;23;20152;-90
2023/10/28 05:20:06;;;;;;;4.93;2.37;;;;;;;20.21;63.15;98090.06;6188933;23;20154;-90
2023/10/28 05:22:36;;;;;;;10.77;3.27;;;;;;;20.26;63.25;98104.75;6215633;23;20220;-90
2023/10/28 05:25:04;;;;;;;7.87;2.77;;;;;;;20.30;62.90;98112.22;6188983;23;20150;-90
2023/10/28 05:27:30;;;;;;;6.43;2.90;;;;;;;20.33;62.92;98119.88;6215183;23;20154;-90
2023/10/28 05:29:56;;;;;;;9.13;2.80;;;;;;;20.31;62.55;98129.03;6215057;23;20578;-91
2023/10/28 05:32:21;;;;;;;6.63;3.23;;;;;;;20.39;62.03;98137.00;6215197;23;20193;-89
2023/10/28 05:34:47;;;;;;;9.30;3.93;;;;;;;20.46;62.02;98132.69;6188856;23;20577;-89
2023/10/28 05:37:12;;;;;;;7.63;2.57;;;;;;;20.54;61.92;98135.34;6214933;23;20489;-90
2023/10/28 05:39:40;;;;;;;11.73;3.30;;;;;;;20.67;61.50;98148.97;6215527;23;20570;-90
2023/10/28 05:42:11;;;;;;;14.87;4.60;;;;;;;20.83;60.80;98143.63;6215177;23;20146;-90
2023/10/28 05:44:37;;;;;;;13.93;5.67;;;;;;;20.93;59.99;98144.28;6214935;23;20146;-89
2023/10/28 05:47:03;;;;;;;13.83;4.77;;;;;;;21.00;59.95;98141.75;6188964;23;20157;-90
2023/10/28 05:49:28;;;;;;;11.57;4.00;;;;;;;21.19;59.29;98149.41;6215156;23;20239;-90
2023/10/28 05:51:54;;;;;;;10.83;3.67;;;;;;;21.34;59.19;98151.19;6188476;23;20174;-89
2023/10/28 05:54:20;;;;;;;13.47;4.40;;;;;;;21.54;58.67;98142.78;6215100;23;20633;-89
2023/10/28 05:56:45;;;;;;;9.77;3.57;;;;;;;21.80;57.93;98149.47;6215146;23;20620;-90
2023/10/28 05:59:11;;;;;;;19.07;4.47;;;;;;;22.21;57.52;98158.09;6188671;23;20153;-90
2023/10/28 06:01:37;;;;;;;12.33;3.63;;;;;;;23.22;55.53;98153.19;6215426;23;20208;-90
2023/10/28 06:04:03;;;;;;;11.43;3.53;;;;;;;24.82;50.73;98146.63;6215502;23;20149;-90
2023/10/28 06:06:31;;;;;;;8.77;3.63;;;;;;;25.99;46.93;98145.66;6214903;23;20620;-89
2023/10/28 06:09:00;;;;;;;6.60;2.73;;;;;;;26.42;45.84;98153.41;6188834;23;20169;-90
2023/10/28 06:11:26;;;;;;;13.10;4.10;;;;;;;26.34;45.95;98158.97;6214909;23;20597;-90
2023/10/28 06:13:52;;;;;;;8.47;2.67;;;;;;;26.17;46.22;98170.13;6188480;23;20204;-89
2023/10/28 06:16:20;;;;;;;8.20;3.00;;;;;;;26.09;45.75;98164.91;6215303;23;20653;-90
2023/10/28 06:18:46;;;;;;;6.33;2.43;;;;;;;26.43;45.63;98168.50;6216285;23;20146;-90
2023/10/28 06:21:14;;;;;;;6.50;2.23;;;;;;;27.10;44.57;98184.47;6216514;23;20150;-90
2023/10/28 06:23:39;;;;;;;6.67;1.83;;;;;;;28.01;42.28;98186.16;6217106;23;20146;-90
2023/10/28 06:26:07;;;;;;;8.20;2.40;;;;;;;29.08;40.60;98189.66;6216559;23;20161;-90
2023/10/28 06:28:33;;;;;;;7.93;2.30;;;;;;;30.14;38.04;98179.38;6190226;23;20156;-90
2023/10/28 06:30:59;;;;;;;6.03;1.93;;;;;;;30.99;36.75;98183.56;6216789;23;20582;-90
2023/10/28 06:33:24;;;;;;;8.00;1.83;;;;;;;31.57;35.65;98191.72;6216658;23;20232;-90
2023/10/28 06:35:50;;;;;;;7.25;2.38;;;;;;;32.20;34.66;98202.56;6216869;23;20150;-91
2023/10/28 06:38:17;;;;;;;8.77;1.88;;;;;;;32.84;33.80;98207.84;6216667;23;20146;-90
2023/10/28 06:40:43;;;;;;;6.75;1.77;;;;;;;32.91;33.79;98209.34;6216381;23;20150;-91
2023/10/28 06:43:11;;;;;;;4.07;1.52;;;;;;;32.94;33.26;98208.81;6216588;23;20146;-88
2023/10/28 06:45:36;;;;;;;6.68;1.50;;;;;;;33.00;33.04;98212.44;6216739;23;20208;-91
2023/10/28 06:48:03;;;;;;;6.60;1.60;;;;;;;32.99;32.93;98208.09;6216565;23;20149;-91
2023/10/28 06:50:29;;;;;;;4.32;2.13;;;;;;;32.89;33.03;98203.31;6190521;23;20154;-91
2023/10/28 06:52:55;;;;;;;6.75;1.90;;;;;;;32.50;34.23;98212.34;6190456;23;20263;-92
2023/10/28 06:55:22;;;;;;;5.82;2.10;;;;;;;32.19;34.50;98217.19;6190136;23;20149;-89
2023/10/28 06:57:48;;;;;;;7.35;1.38;;;;;;;31.92;34.53;98213.34;6216853;23;20157;-88
2023/10/28 07:00:27;;;;;;;3.78;1.40;;;;;;;31.62;35.79;98204.56;6216631;23;20623;-89
2023/10/28 07:02:56;;;;;;;7.32;1.30;;;;;;;31.36;35.33;98215.84;6217017;23;20560;-88
2023/10/28 07:05:24;;;;;;;8.15;1.27;;;;;;;31.13;35.81;98213.13;6216408;23;20173;-89
2023/10/28 07:08:03;;;;;;;5.13;1.30;;;;;;;30.92;36.52;98222.63;6216141;23;20135;-89
2023/10/28 07:10:29;;;;;;;5.15;1.70;;;;;;;30.82;36.58;98225.84;6189978;23;20160;-89
2023/10/28 07:12:54;;;;;;;9.32;1.45;;;;;;;30.76;36.15;98234.91;6216380;23;20173;-89
2023/10/28 07:15:21;;;;;;;8.05;2.47;;;;;;;30.63;36.33;98229.69;6190472;23;20157;-91
2023/10/28 07:17:47;;;;;;;6.50;2.80;;;;;;;30.46;37.26;98233.25;6216875;23;20146;-91
2023/10/28 07:20:23;;;;;;;;;;;;;;;;;;;;;
2023/10/28 07:23:04;;;;;;;6.60;2.72;;;;;;;30.16;37.28;98233.22;6217107;23;20216;-92
2023/10/28 07:25:29;;;;;;;10.93;2.50;;;;;;;30.03;37.74;98230.69;6187674;23;20145;-90
2023/10/28 07:28:10;;;;;;;;;;;;;;;;;;;;;
2023/10/28 07:30:48;;;;;;;6.63;2.70;;;;;;;29.89;37.73;98238.13;6094519;23;20223;-89
2023/10/28 07:33:17;;;;;;;13.15;2.50;;;;;;;29.59;38.32;98235.28;6189985;23;20177;-89
2023/10/28 07:39:21;;;;;;;11.38;2.47;;;;;;;29.41;38.43;98245.22;6066879;23;20553;-91
2023/10/28 07:41:48;;;;;;;9.40;2.75;;;;;;;29.29;38.80;98247.00;6066950;23;20145;-92
2023/10/28 07:44:13;;;;;;;8.70;2.03;;;;;;;29.16;38.93;98247.91;6066564;23;20587;-90
2023/10/28 07:46:43;;;;;;;6.05;2.30;;;;;;;29.02;39.62;98244.50;6066630;23;20220;-90
2023/10/28 07:49:10;;;;;;;8.73;2.88;;;;;;;28.88;39.88;98248.31;6066266;23;20675;-90
2023/10/28 07:52:13;;;;;;;14.00;2.65;;;;;;;28.80;40.79;98253.97;6066556;23;20157;-91
2023/10/28 07:55:07;;;;;;;8.95;3.00;;;;;;;28.79;40.31;98255.03;6062770;23;20161;-91
2023/10/28 07:57:34;;;;;;;6.85;2.47;;;;;;;28.75;40.81;98259.19;6066682;23;20291;-91
2023/10/28 08:00:13;;;;;;;7.35;2.42;;;;;;;28.77;40.78;98250.91;6042509;23;20161;-88
2023/10/28 08:03:24;;;;;;;5.80;2.67;;;;;;;28.83;40.74;98258.09;6042632;23;20236;-92
2023/10/28 08:06:24;;;;;;;;;;;;;;;;;;;;;
2023/10/28 08:09:04;;;;;;;8.23;2.03;;;;;;;28.82;40.57;98254.59;5994722;23;20236;-92
2023/10/28 08:15:20;;;;;;;7.13;2.63;;;;;;;29.01;39.54;98260.91;5979616;23;20171;-92
2023/10/28 08:17:46;;;;;;;9.65;3.08;;;;;;;28.97;40.28;98262.38;6215881;23;20153;-91
2023/10/28 08:20:40;;;;;;;13.65;2.33;;;;;;;29.10;40.20;98262.28;6215705;23;20554;-92
2023/10/28 08:23:07;;;;;;;13.23;3.08;;;;;;;29.24;39.77;98269.28;6189697;23;20196;-91
2023/10/28 08:25:35;;;;;;;6.30;2.55;;;;;;;29.36;39.89;98269.38;6189534;23;20153;-93
2023/10/28 08:28:02;;;;;;;6.63;2.65;;;;;;;29.29;38.91;98265.91;6215325;23;20156;-91
2023/10/28 08:30:28;;;;;;;5.88;2.53;;;;;;;29.36;39.01;98267.50;6189103;23;20150;-92
2023/10/28 08:32:56;;;;;;;13.15;2.70;;;;;;;29.35;39.92;98270.44;6186882;23;20261;-92
2023/10/28 08:35:28;;;;;;;9.15;2.70;;;;;;;29.62;39.43;98271.81;6189429;23;20161;-96
2023/10/28 08:41:47;;;;;;;;;;;;;;;;;;;;;
2023/10/28 08:45:08;;;;;;;;;;;;;;;;;;;;;
2023/10/28 08:48:38;;;;;;;;;;;;;;;;;;;;;
2023/10/28 08:58:01;;;;;;;8.45;2.20;;;;;;;31.16;35.58;98278.44;6009146;23;20226;-92
2023/10/28 09:01:18;;;;;;;11.55;2.35;;;;;;;31.17;36.01;98282.00;6009660;23;20590;-94
2023/10/28 09:59:33;;;;;;;8.20;2.40;;;;;;;32.90;32.34;98247.56;6224473;22;20492;-92
2023/10/28 10:02:44;;;;;;;4.03;1.40;;;;;;;32.82;32.27;98246.09;6217676;23;20233;-93
2023/10/28 10:14:32;;;;;;;7.97;1.95;;;;;;;33.07;32.02;98234.88;6226214;22;20179;-87
2023/10/28 11:14:00;;;;;;;6.43;1.20;;;;;;;35.08;28.20;98184.97;6093175;23;20199;-91
2023/10/28 11:27:28;;;;;;;4.60;1.15;;;;;;;35.52;27.70;98180.91;5899360;24;20186;-92
2023/10/28 11:29:56;;;;;;;5.00;1.25;;;;;;;35.16;27.03;98176.34;5972332;23;20165;-88
2023/10/28 11:32:22;;;;;;;4.00;1.38;;;;;;;34.67;27.83;98191.13;6215935;23;20169;-89
2023/10/28 11:34:48;;;;;;;5.07;1.00;;;;;;;34.66;27.86;98179.41;6215417;23;20184;-88
2023/10/28 11:37:18;;;;;;;7.15;1.20;;;;;;;34.50;28.53;98174.88;6214989;23;20228;-91
2023/10/28 11:49:49;;;;;;;5.43;1.85;;;;;;;35.27;27.74;98169.03;6154418;23;20155;-91
2023/10/28 11:52:18;;;;;;;4.90;1.08;;;;;;;35.11;26.83;98162.66;6182077;23;20643;-92
2023/10/28 11:55:45;;;;;;;;;;;;;;;;;;;;;
2023/10/28 12:01:02;;;;;;;7.05;0.90;;;;;;;35.52;27.27;98153.66;6154863;23;20569;-90
2023/10/28 12:06:51;;;;;;;3.60;0.85;;;;;;;35.57;26.37;98144.72;6216076;23;20233;-92
2023/10/28 12:09:18;;;;;;;2.90;0.75;;;;;;;35.43;27.02;98147.06;6189423;23;20248;-90
2023/10/28 12:11:46;;;;;;;3.30;0.98;;;;;;;35.52;26.78;98145.47;6216265;23;20146;-91
2023/10/28 12:14:16;;;;;;;5.97;1.38;;;;;;;35.60;26.88;98144.19;6215809;23;20190;-90
2023/10/28 12:16:47;;;;;;;4.78;0.80;;;;;;;35.55;26.89;98145.00;6215529;23;20156;-90
2023/10/28 12:19:15;;;;;;;4.97;0.95;;;;;;;35.67;26.64;98144.75;6188639;23;20142;-91
2023/10/28 12:22:01;;;;;;;4.20;1.35;;;;;;;35.87;26.61;98144.03;6216448;23;20149;-92
2023/10/28 12:24:49;;;;;;;4.28;0.75;;;;;;;35.88;25.73;98142.97;6215830;23;20130;-91
2023/10/28 12:27:46;;;;;;;6.53;0.90;;;;;;;35.81;26.28;98148.66;6216696;23;20145;-92
2023/10/28 12:30:19;;;;;;;2.92;0.52;;;;;;;35.66;26.32;98138.50;6217121;23;20199;-92
2023/10/28 12:32:59;;;;;;;3.60;0.80;;;;;;;35.38;28.13;98140.78;6189420;23;20491;-91
2023/10/28 12:38:34;;;;;;;4.47;0.80;;;;;;;34.95;28.58;98137.19;6215900;23;20189;-91
2023/10/28 12:41:01;;;;;;;8.23;0.82;;;;;;;34.84;29.04;98143.63;6215818;23;20146;-91
2023/10/28 12:43:28;;;;;;;4.22;1.27;;;;;;;34.87;28.87;98142.28;6189318;23;20492;-91
2023/10/28 12:45:55;;;;;;;3.85;1.33;;;;;;;34.85;28.42;98141.72;6215654;23;20627;-90
2023/10/28 12:48:21;;;;;;;5.47;0.98;;;;;;;34.34;29.59;98138.53;6215221;23;20150;-91
2023/10/28 12:51:08;;;;;;;4.72;0.95;;;;;;;34.04;29.28;98134.63;6215550;23;20169;-91
2023/10/28 12:53:35;;;;;;;5.32;0.93;;;;;;;33.68;30.15;98138.81;6215185;23;20623;-92
2023/10/28 12:56:23;;;;;;;5.15;0.95;;;;;;;33.76;30.58;98141.91;6215305;23;20150;-92
2023/10/28 12:58:49;;;;;;;4.43;0.93;;;;;;;34.12;30.34;98140.44;6188658;23;20487;-90
2023/10/28 13:01:16;;;;;;;3.92;0.73;;;;;;;33.89;29.98;98140.69;6214122;23;20157;-91
2023/10/28 13:03:51;;;;;;;8.85;1.33;;;;;;;34.00;30.25;98131.59;6215196;23;20141;-92
2023/10/28 13:06:52;;;;;;;5.47;0.82;;;;;;;34.13;29.76;98135.84;6214051;23;20197;-91
2023/10/28 13:09:23;;;;;;;3.92;0.88;;;;;;;34.20;30.28;98131.84;6142842;23;20199;-92
2023/10/28 13:12:26;;;;;;;;;;;;;;;;;;;;;
2023/10/28 13:18:02;;;;;;;3.88;1.10;;;;;;;34.39;29.91;98129.56;6140742;23;20151;-90
2023/10/28 13:20:27;;;;;;;4.43;1.15;;;;;;;34.63;29.51;98125.47;6155818;23;20190;-90
2023/10/28 13:23:03;;;;;;;7.07;1.40;;;;;;;34.72;29.04;98128.56;6155107;23;20150;-91
2023/10/28 13:25:35;;;;;;;7.85;1.80;;;;;;;34.55;29.03;98129.50;6157037;23;20139;-92
2023/10/28 13:28:27;;;;;;;6.10;1.05;;;;;;;34.74;29.27;98126.38;6156398;23;20602;-91
2023/10/28 13:31:07;;;;;;;6.07;1.30;;;;;;;34.80;29.23;98125.34;6145942;23;20170;-92
2023/10/28 13:33:56;;;;;;;4.13;1.25;;;;;;;34.94;29.14;98121.09;6156863;23;20186;-93
2023/10/28 13:36:27;;;;;;;8.20;1.10;;;;;;;34.74;28.98;98121.78;6156665;23;20159;-92
2023/10/28 13:38:57;;;;;;;2.22;0.77;;;;;;;34.63;28.97;98116.50;6158584;23;20139;-91
2023/10/28 13:41:24;;;;;;;6.97;1.48;;;;;;;34.50;29.27;98121.25;6156698;23;20166;-91
2023/10/28 13:43:55;;;;;;;5.13;0.90;;;;;;;34.41;29.34;98122.78;6157711;23;20587;-91
2023/10/28 13:49:20;;;;;;;2.35;0.80;;;;;;;34.20;30.01;98118.22;6152616;23;20166;-92
2023/10/28 13:51:54;;;;;;;2.60;0.60;;;;;;;34.14;30.74;98126.59;6157192;23;20182;-93
2023/10/28 13:54:35;;;;;;;7.53;1.05;;;;;;;33.92;30.80;98138.31;6156587;23;20244;-89
2023/10/28 13:57:17;;;;;;;4.93;0.80;;;;;;;33.75;31.00;98137.53;6156358;23;20143;-90
2023/10/28 13:59:49;;;;;;;5.95;0.80;;;;;;;33.65;31.27;98136.63;6156495;23;20218;-93
2023/10/28 14:02:16;;;;;;;2.10;0.90;;;;;;;33.70;31.45;98132.03;6156843;23;20161;-91
2023/10/28 14:04:43;;;;;;;6.45;1.20;;;;;;;33.53;31.43;98141.28;6156222;23;20155;-90
2023/10/28 14:07:23;;;;;;;8.50;1.92;;;;;;;33.37;31.69;98142.97;6157552;23;20225;-93
2023/10/28 14:09:48;;;;;;;3.22;0.77;;;;;;;33.43;31.82;98136.56;6210935;23;20251;-90
2023/10/28 14:12:19;;;;;;;2.22;0.90;;;;;;;33.35;31.84;98135.09;6217187;23;20173;-92
2023/10/28 14:14:47;;;;;;;4.57;1.10;;;;;;;33.17;32.74;98135.38;6217097;23;20154;-93
2023/10/28 14:17:16;;;;;;;4.50;1.20;;;;;;;33.10;32.51;98137.44;6217396;23;20600;-91
2023/10/28 14:19:42;;;;;;;8.15;1.20;;;;;;;32.86;33.08;98145.97;6188625;23;20499;-91
2023/10/28 14:22:09;;;;;;;4.82;1.15;;;;;;;32.84;32.97;98143.50;6217265;23;20157;-91
2023/10/28 14:24:36;;;;;;;6.70;1.17;;;;;;;32.72;33.15;98145.47;6190587;23;20161;-91
2023/10/28 14:27:03;;;;;;;2.55;0.63;;;;;;;32.51;33.89;98143.44;6217321;23;20146;-91
2023/10/28 14:29:30;;;;;;;4.05;1.05;;;;;;;32.42;34.09;98145.72;6216896;23;20150;-90
2023/10/28 14:31:57;;;;;;;13.70;3.08;;;;;;;32.16;34.34;98152.59;6216668;23;20211;-92
2023/10/28 14:34:23;;;;;;;16.45;3.53;;;;;;;31.94;34.36;98170.56;6217204;23;20150;-92
2023/10/28 14:36:52;;;;;;;10.05;2.30;;;;;;;31.92;34.80;98166.44;6216838;23;20223;-91
2023/10/28 14:39:18;;;;;;;9.80;2.95;;;;;;;31.92;34.81;98169.97;6216393;23;20146;-92
2023/10/28 14:41:48;;;;;;;11.30;3.35;;;;;;;31.83;35.00;98168.69;6190607;23;20158;-92
2023/10/28 14:44:15;;;;;;;9.65;2.22;;;;;;;31.77;35.07;98174.25;6216888;23;20149;-91
2023/10/28 14:46:41;;;;;;;12.45;2.10;;;;;;;31.67;35.16;98166.72;6214310;23;20150;-91
2023/10/28 14:49:08;;;;;;;11.32;1.48;;;;;;;31.46;35.70;98172.75;6189891;23;20154;-92